createdAt,value
2022-10-01T00:00:00.008Z,99.90
2022-10-01T00:02:29.444Z,99.90
2022-10-01T00:04:57.674Z,99.90
2022-10-01T00:07:26.243Z,99.90
2022-10-01T00:09:54.240Z,99.90
2022-10-01T00:12:22.359Z,99.90
2022-10-01T00:14:51.103Z,99.90
2022-10-01T00:17:19.229Z,99.90
2022-10-01T00:19:50.852Z,99.90
2022-10-01T00:22:19.158Z,99.90
2022-10-01T00:24:47.278Z,99.90
2022-10-01T00:27:15.301Z,99.90
2022-10-01T00:29:45.356Z,99.90
2022-10-01T00:32:13.569Z,99.90
2022-10-01T00:34:41.619Z,99.90
2022-10-01T00:37:11.470Z,99.90
2022-10-01T00:39:39.703Z,99.90
2022-10-01T00:42:19.598Z,99.90
2022-10-01T00:44:47.930Z,99.90
2022-10-01T00:47:27.008Z,99.90
2022-10-01T00:50:00.986Z,99.90
2022-10-01T00:52:34.088Z,99.90
2022-10-01T00:55:06.454Z,99.90
2022-10-01T00:57:35.829Z,99.90
2022-10-01T01:00:08.245Z,99.90
2022-10-01T01:02:36.543Z,99.90
2022-10-01T01:05:05.767Z,99.90
2022-10-01T01:07:36.252Z,99.90
2022-10-01T01:10:06.546Z,99.90
2022-10-01T01:13:00.377Z,99.90
2022-10-01T01:15:34.429Z,99.90
2022-10-01T01:18:10.852Z,99.90
2022-10-01T01:21:09.193Z,99.90
2022-10-01T01:23:55.616Z,99.90
2022-10-01T01:26:36.005Z,99.90
2022-10-01T01:29:08.521Z,99.90
2022-10-01T01:31:40.809Z,99.90
2022-10-01T01:34:12.992Z,99.90
2022-10-01T01:36:46.593Z,99.90
2022-10-01T01:39:18.096Z,99.90
2022-10-01T01:41:50.376Z,99.90
2022-10-01T01:44:23.914Z,99.90
2022-10-01T01:46:56.494Z,99.90
2022-10-01T01:49:25.752Z,99.90
2022-10-01T01:51:59.296Z,99.90
2022-10-01T01:54:30.461Z,99.90
2022-10-01T01:56:59.671Z,99.90
2022-10-01T01:59:29.373Z,99.90
2022-10-01T02:01:58.908Z,99.90
2022-10-01T02:04:33.138Z,99.90
2022-10-01T02:07:26.504Z,99.90
2022-10-01T02:10:04.571Z,99.90
2022-10-01T02:12:47.071Z,99.90
2022-10-01T02:15:24.093Z,99.90
2022-10-01T02:17:58.391Z,99.90
2022-10-01T02:20:32.123Z,99.90
2022-10-01T02:23:03.913Z,99.90
2022-10-01T02:25:43.334Z,99.90
2022-10-01T02:28:15.335Z,99.90
2022-10-01T02:30:45.897Z,99.90
2022-10-01T02:33:17.174Z,99.90
2022-10-01T02:35:48.265Z,99.90
2022-10-01T02:38:18.269Z,99.90
2022-10-01T02:40:49.226Z,99.90
2022-10-01T02:43:20.399Z,99.90
2022-10-01T02:45:56.610Z,99.90
2022-10-01T02:48:24.977Z,99.90
2022-10-01T02:50:55.032Z,99.90
2022-10-01T02:53:28.557Z,99.90
2022-10-01T02:55:58.752Z,99.90
2022-10-01T02:58:26.223Z,99.90
2022-10-01T03:00:55.648Z,99.90
2022-10-01T03:03:26.052Z,99.90
2022-10-01T03:05:54.153Z,99.90
2022-10-01T03:08:22.366Z,99.90
2022-10-01T03:10:50.470Z,99.90
2022-10-01T03:13:19.779Z,99.90
2022-10-01T03:15:48.306Z,99.90
2022-10-01T03:18:17.704Z,99.90
2022-10-01T03:20:45.711Z,99.90
2022-10-01T03:23:13.742Z,99.90
2022-10-01T03:25:41.927Z,99.80
2022-10-01T03:28:09.968Z,99.70
2022-10-01T03:30:38.030Z,99.70
2022-10-01T03:33:06.069Z,99.60
2022-10-01T03:35:35.452Z,99.60
2022-10-01T03:38:03.863Z,99.60
2022-10-01T03:40:33.418Z,99.60
2022-10-01T03:43:01.537Z,99.60
2022-10-01T03:45:29.570Z,99.60
2022-10-01T03:47:57.582Z,99.60
2022-10-01T03:50:25.668Z,99.40
2022-10-01T03:52:55.029Z,99.40
2022-10-01T03:55:25.172Z,99.30
2022-10-01T03:57:53.233Z,99.30
2022-10-01T04:00:21.335Z,99.20
2022-10-01T04:02:49.399Z,99.20
2022-10-01T04:05:17.573Z,99.10
2022-10-01T04:07:45.658Z,99.10
2022-10-01T04:10:15.187Z,99.10
2022-10-01T04:12:43.248Z,99.10
2022-10-01T04:15:11.834Z,99.00
2022-10-01T04:17:43.883Z,99.10
2022-10-01T04:20:14.103Z,99.10
2022-10-01T04:22:42.897Z,99.10
2022-10-01T04:25:11.888Z,99.20
2022-10-01T04:27:41.922Z,99.60
2022-10-01T04:30:11.368Z,99.40
2022-10-01T04:32:39.782Z,99.40
2022-10-01T04:35:11.439Z,99.40
2022-10-01T04:37:39.708Z,99.50
2022-10-01T04:40:09.695Z,99.60
2022-10-01T04:42:41.959Z,99.60
2022-10-01T04:45:11.526Z,99.60
2022-10-01T04:47:39.642Z,99.50
2022-10-01T04:50:08.290Z,99.60
2022-10-01T04:52:36.326Z,99.60
2022-10-01T04:55:04.675Z,99.60
2022-10-01T04:57:33.040Z,99.60
2022-10-01T05:00:04.492Z,99.60
2022-10-01T05:02:34.564Z,99.70
2022-10-01T05:05:03.767Z,99.70
2022-10-01T05:07:32.004Z,99.60
2022-10-01T05:10:00.529Z,99.60
2022-10-01T05:12:28.967Z,99.60
2022-10-01T05:14:57.897Z,99.60
2022-10-01T05:17:27.659Z,99.60
2022-10-01T05:19:55.680Z,99.60
2022-10-01T05:22:23.759Z,99.60
2022-10-01T05:24:51.871Z,99.50
2022-10-01T05:27:19.966Z,99.50
2022-10-01T05:29:48.406Z,99.50
2022-10-01T05:32:16.501Z,99.60
2022-10-01T05:34:48.821Z,99.50
2022-10-01T05:37:19.958Z,99.50
2022-10-01T05:39:48.415Z,99.40
2022-10-01T05:42:16.616Z,99.30
2022-10-01T05:44:46.274Z,99.30
2022-10-01T05:47:15.338Z,99.20
2022-10-01T05:49:45.207Z,99.10
2022-10-01T05:52:14.986Z,99.10
2022-10-01T05:54:43.112Z,99.00
2022-10-01T05:57:11.531Z,99.20
2022-10-01T05:59:40.186Z,98.90
2022-10-01T06:02:10.785Z,98.90
2022-10-01T06:04:41.167Z,98.80
2022-10-01T06:07:10.660Z,98.80
2022-10-01T06:09:38.684Z,98.70
2022-10-01T06:12:10.679Z,98.70
2022-10-01T06:14:39.100Z,98.60
2022-10-01T06:17:07.206Z,98.50
2022-10-01T06:19:35.231Z,98.50
2022-10-01T06:22:03.253Z,98.50
2022-10-01T06:24:32.783Z,98.50
2022-10-01T06:27:00.785Z,98.40
2022-10-01T06:29:28.830Z,98.50
2022-10-01T06:31:57.403Z,98.50
2022-10-01T06:34:26.508Z,98.50
2022-10-01T06:36:54.653Z,98.60
2022-10-01T06:39:22.669Z,98.60
2022-10-01T06:41:52.045Z,98.70
2022-10-01T06:44:20.675Z,98.70
2022-10-01T06:46:48.712Z,98.80
2022-10-01T06:49:20.512Z,98.80
2022-10-01T06:52:06.484Z,98.80
2022-10-01T06:54:34.685Z,98.90
2022-10-01T06:57:04.067Z,99.00
2022-10-01T06:59:32.220Z,99.30
2022-10-01T07:02:00.316Z,99.60
2022-10-01T07:04:28.423Z,99.90
2022-10-01T07:06:56.728Z,99.90
2022-10-01T07:09:25.386Z,99.90
2022-10-01T07:11:54.602Z,99.90
2022-10-01T07:14:24.303Z,99.90
2022-10-01T07:16:52.350Z,99.90
2022-10-01T07:19:20.505Z,99.90
2022-10-01T07:21:49.326Z,99.90
2022-10-01T07:24:17.498Z,99.90
2022-10-01T07:26:45.532Z,99.90
2022-10-01T07:29:13.700Z,99.90
2022-10-01T07:31:44.318Z,99.90
2022-10-01T07:34:12.485Z,99.90
2022-10-01T07:36:40.512Z,99.90
2022-10-01T07:39:08.531Z,99.90
2022-10-01T07:41:36.828Z,99.90
2022-10-01T07:44:05.296Z,99.90
2022-10-01T07:46:34.855Z,99.90
2022-10-01T07:49:04.615Z,99.90
2022-10-01T07:51:33.077Z,99.90
2022-10-01T07:54:01.347Z,99.90
2022-10-01T07:56:29.697Z,99.90
2022-10-01T07:58:58.059Z,99.90
2022-10-01T08:01:26.689Z,99.90
2022-10-01T08:03:55.048Z,99.90
2022-10-01T08:06:25.807Z,99.90
2022-10-01T08:08:54.130Z,99.90
2022-10-01T08:11:22.153Z,99.90
2022-10-01T08:13:50.230Z,99.90
2022-10-01T08:16:18.716Z,99.90
2022-10-01T08:18:46.784Z,99.90
2022-10-01T08:21:14.799Z,99.90
2022-10-01T08:23:44.276Z,99.90
2022-10-01T08:26:12.377Z,99.90
2022-10-01T08:28:41.029Z,99.90
2022-10-01T08:31:09.976Z,99.90
2022-10-01T08:33:38.928Z,99.90
2022-10-01T08:36:09.042Z,99.90
2022-10-01T08:38:39.866Z,99.90
2022-10-01T08:41:31.659Z,99.90
2022-10-01T08:44:02.882Z,99.90
2022-10-01T08:46:35.089Z,99.90
2022-10-01T08:49:09.393Z,99.90
2022-10-01T08:51:43.689Z,99.90
2022-10-01T08:54:31.212Z,99.90
2022-10-01T08:57:02.664Z,99.90
2022-10-01T08:59:50.379Z,99.90
2022-10-01T09:02:24.555Z,99.90
2022-10-01T09:05:00.330Z,99.90
2022-10-01T09:07:47.155Z,99.90
2022-10-01T09:10:27.636Z,99.90
2022-10-01T09:13:13.383Z,99.90
2022-10-01T09:15:47.294Z,99.90
2022-10-01T09:18:22.604Z,99.90
2022-10-01T09:20:56.785Z,99.90
2022-10-01T09:23:29.480Z,99.90
2022-10-01T09:25:59.627Z,99.90
2022-10-01T09:28:32.113Z,99.90
2022-10-01T09:31:13.209Z,99.90
2022-10-01T09:33:44.245Z,99.90
2022-10-01T09:36:17.525Z,99.90
2022-10-01T09:38:49.365Z,99.90
2022-10-01T09:41:18.491Z,99.90
2022-10-01T09:43:48.122Z,99.90
2022-10-01T09:46:18.187Z,99.90
2022-10-01T09:48:55.726Z,99.90
2022-10-01T09:51:28.632Z,99.90
2022-10-01T09:54:04.681Z,99.90
2022-10-01T09:56:40.196Z,99.90
2022-10-01T09:59:15.764Z,99.90
2022-10-01T10:01:47.904Z,99.90
2022-10-01T10:04:20.849Z,99.90
2022-10-01T10:06:49.254Z,99.90
2022-10-01T10:09:19.599Z,99.90
2022-10-01T10:11:47.685Z,99.90
2022-10-01T10:14:23.317Z,99.90
2022-10-01T10:16:52.194Z,99.90
2022-10-01T10:19:25.973Z,99.90
2022-10-01T10:21:57.572Z,99.90
2022-10-01T10:24:28.182Z,99.90
2022-10-01T10:26:58.680Z,99.90
2022-10-01T10:29:31.027Z,99.90
2022-10-01T10:32:00.704Z,99.90
2022-10-01T10:34:33.786Z,99.90
2022-10-01T10:37:06.152Z,99.90
2022-10-01T10:39:37.581Z,99.90
2022-10-01T10:42:07.317Z,99.90
2022-10-01T10:44:40.098Z,99.90
2022-10-01T10:47:11.517Z,99.90
2022-10-01T10:49:45.847Z,99.90
2022-10-01T10:52:21.124Z,99.90
2022-10-01T10:54:50.524Z,99.90
2022-10-01T10:57:24.205Z,99.90
2022-10-01T11:00:02.516Z,99.90
2022-10-01T11:02:32.428Z,99.90
2022-10-01T11:05:04.813Z,99.90
2022-10-01T11:07:33.429Z,99.90
2022-10-01T11:10:22.928Z,99.90
2022-10-01T11:13:18.687Z,99.90
2022-10-01T11:16:03.345Z,99.90
2022-10-01T11:19:01.751Z,99.90
2022-10-01T11:21:48.809Z,99.90
2022-10-01T11:24:34.584Z,99.90
2022-10-01T11:27:11.334Z,99.90
2022-10-01T11:29:51.849Z,99.90
2022-10-01T11:32:29.343Z,99.90
2022-10-01T11:35:19.801Z,99.90
2022-10-01T11:38:06.659Z,99.90
2022-10-01T11:40:37.806Z,99.90
2022-10-01T11:43:16.586Z,99.90
2022-10-01T11:45:49.709Z,99.90
2022-10-01T11:48:25.933Z,99.90
2022-10-01T11:50:57.095Z,99.90
2022-10-01T11:53:32.333Z,99.90
2022-10-01T11:56:21.306Z,99.90
2022-10-01T11:58:55.091Z,99.90
2022-10-01T12:01:30.854Z,99.90
2022-10-01T12:04:18.792Z,99.90
2022-10-01T12:06:55.395Z,99.90
2022-10-01T12:09:30.404Z,99.90
2022-10-01T12:12:02.886Z,99.90
2022-10-01T12:14:38.881Z,99.90
2022-10-01T12:17:14.273Z,99.90
2022-10-01T12:19:50.421Z,99.90
2022-10-01T12:22:24.816Z,99.90
2022-10-01T12:24:53.530Z,99.90
2022-10-01T12:27:41.392Z,99.90
2022-10-01T12:30:12.743Z,99.90
2022-10-01T12:33:10.375Z,99.90
2022-10-01T12:35:52.587Z,99.90
2022-10-01T12:38:36.731Z,99.90
2022-10-01T12:41:16.172Z,99.90
2022-10-01T12:44:27.270Z,99.90
2022-10-01T12:47:08.050Z,99.90
2022-10-01T12:49:46.341Z,99.90
2022-10-01T12:52:23.649Z,99.90
2022-10-01T12:55:16.482Z,99.90
2022-10-01T12:57:52.182Z,99.90
2022-10-01T13:00:22.754Z,99.90
2022-10-01T13:03:17.972Z,99.90
2022-10-01T13:06:01.214Z,99.90
2022-10-01T13:08:45.753Z,99.90
2022-10-01T13:11:26.201Z,99.90
2022-10-01T13:13:55.567Z,99.90
2022-10-01T13:16:29.983Z,99.90
2022-10-01T13:19:04.329Z,99.90
2022-10-01T13:21:46.811Z,99.90
2022-10-01T13:24:26.745Z,99.90
2022-10-01T13:27:01.481Z,99.90
2022-10-01T13:29:44.868Z,99.90
2022-10-01T13:32:29.172Z,99.90
2022-10-01T13:34:58.341Z,99.90
2022-10-01T13:37:38.889Z,99.90
2022-10-01T13:40:27.947Z,99.90
2022-10-01T13:42:58.987Z,99.90
2022-10-01T13:45:34.255Z,99.90
2022-10-01T13:48:09.160Z,99.90
2022-10-01T13:50:37.827Z,99.90
2022-10-01T13:53:08.415Z,99.90
2022-10-01T13:55:43.115Z,99.90
2022-10-01T13:58:24.475Z,99.90
2022-10-01T14:00:54.473Z,99.90
2022-10-01T14:03:36.656Z,99.90
2022-10-01T14:06:07.655Z,99.90
2022-10-01T14:08:42.060Z,99.90
2022-10-01T14:11:31.610Z,99.90
2022-10-01T14:14:39.077Z,99.90
2022-10-01T14:17:08.479Z,99.90
2022-10-01T14:19:36.871Z,99.90
2022-10-01T14:22:21.496Z,99.90
2022-10-01T14:25:06.560Z,99.90
2022-10-01T14:27:44.347Z,99.90
2022-10-01T14:30:16.433Z,99.90
2022-10-01T14:33:09.877Z,99.90
2022-10-01T14:35:43.949Z,99.90
2022-10-01T14:38:15.781Z,99.90
2022-10-01T14:40:46.987Z,99.90
2022-10-01T14:43:22.481Z,99.90
2022-10-01T14:45:53.453Z,99.90
2022-10-01T14:48:22.949Z,99.90
2022-10-01T14:50:54.714Z,99.90
2022-10-01T14:53:25.010Z,99.90
2022-10-01T14:55:56.145Z,99.90
2022-10-01T14:58:30.971Z,99.90
2022-10-01T15:01:00.052Z,99.90
2022-10-01T15:03:28.258Z,99.90
2022-10-01T15:06:04.419Z,99.90
2022-10-01T15:08:41.418Z,99.90
2022-10-01T15:11:13.386Z,99.90
2022-10-01T15:13:45.276Z,99.90
2022-10-01T15:16:15.430Z,99.90
2022-10-01T15:18:47.992Z,99.90
2022-10-01T15:21:20.837Z,99.90
2022-10-01T15:23:49.837Z,99.90
2022-10-01T15:26:22.346Z,99.90
2022-10-01T15:29:02.000Z,99.90
2022-10-01T15:31:30.536Z,99.90
2022-10-01T15:34:01.128Z,99.90
2022-10-01T15:36:29.487Z,99.90
2022-10-01T15:38:58.944Z,99.90
2022-10-01T15:41:32.797Z,99.90
2022-10-01T15:44:04.986Z,99.90
2022-10-01T15:46:35.518Z,99.90
2022-10-01T15:49:20.641Z,99.90
2022-10-01T15:52:07.609Z,99.90
2022-10-01T15:54:36.491Z,99.90
2022-10-01T15:57:06.198Z,99.60
2022-10-01T15:59:37.263Z,99.90
2022-10-01T16:02:10.698Z,99.60
2022-10-01T16:04:39.388Z,99.60
2022-10-01T16:07:07.488Z,99.90
2022-10-01T16:09:35.552Z,99.90
2022-10-01T16:12:06.653Z,99.90
2022-10-01T16:14:39.416Z,99.90
2022-10-01T16:17:29.095Z,99.90
2022-10-01T16:19:59.184Z,99.80
2022-10-01T16:22:29.746Z,99.70
2022-10-01T16:25:00.410Z,99.50
2022-10-01T16:27:31.392Z,99.80
2022-10-01T16:30:05.604Z,99.90
2022-10-01T16:32:34.782Z,99.90
2022-10-01T16:35:20.809Z,99.90
2022-10-01T16:37:50.163Z,99.90
2022-10-01T16:40:19.229Z,99.90
2022-10-01T16:42:48.123Z,99.90
2022-10-01T16:45:19.979Z,99.90
2022-10-01T16:47:48.213Z,99.90
2022-10-01T16:50:18.302Z,99.90
2022-10-01T16:52:46.830Z,99.90
2022-10-01T16:55:22.705Z,99.90
2022-10-01T16:57:50.957Z,99.90
2022-10-01T17:00:22.338Z,99.90
2022-10-01T17:02:50.604Z,99.90
2022-10-01T17:05:22.298Z,99.90
2022-10-01T17:07:50.663Z,99.90
2022-10-01T17:10:19.898Z,99.90
2022-10-01T17:12:48.273Z,99.90
2022-10-01T17:15:18.497Z,99.90
2022-10-01T17:17:48.331Z,99.90
2022-10-01T17:20:16.612Z,99.90
2022-10-01T17:22:44.734Z,99.90
2022-10-01T17:25:15.964Z,99.90
2022-10-01T17:27:44.344Z,99.90
2022-10-01T17:30:13.295Z,99.90
2022-10-01T17:32:42.993Z,99.90
2022-10-01T17:35:14.215Z,99.90
2022-10-01T17:37:42.696Z,99.90
2022-10-01T17:40:12.188Z,99.90
2022-10-01T17:42:40.361Z,99.90
2022-10-01T17:45:11.094Z,99.90
2022-10-01T17:47:44.295Z,99.90
2022-10-01T17:50:14.157Z,99.90
2022-10-01T17:52:42.897Z,99.90
2022-10-01T17:55:12.563Z,99.90
2022-10-01T17:57:40.735Z,99.90
2022-10-01T18:00:10.036Z,99.90
2022-10-01T18:02:42.893Z,99.90
2022-10-01T18:05:14.910Z,99.90
2022-10-01T18:07:43.579Z,99.90
2022-10-01T18:10:13.857Z,99.90
2022-10-01T18:12:41.952Z,99.90
2022-10-01T18:15:10.774Z,99.90
2022-10-01T18:17:43.442Z,99.90
2022-10-01T18:20:20.889Z,99.90
2022-10-01T18:22:49.205Z,99.90
2022-10-01T18:25:19.458Z,99.90
2022-10-01T18:27:50.161Z,99.90
2022-10-01T18:30:20.392Z,99.90
2022-10-01T18:32:56.813Z,99.90
2022-10-01T18:35:32.109Z,99.90
2022-10-01T18:38:03.975Z,99.90
2022-10-01T18:40:37.729Z,99.90
2022-10-01T18:43:10.377Z,99.90
2022-10-01T18:45:52.280Z,99.90
2022-10-01T18:48:41.667Z,99.90
2022-10-01T18:51:18.523Z,99.90
2022-10-01T18:54:09.295Z,99.90
2022-10-01T18:56:38.907Z,99.90
2022-10-01T18:59:32.969Z,99.90
2022-10-01T19:02:16.726Z,99.90
2022-10-01T19:05:07.640Z,99.90
2022-10-01T19:07:50.942Z,99.90
2022-10-01T19:10:27.546Z,99.90
2022-10-01T19:13:05.222Z,99.90
2022-10-01T19:15:45.034Z,99.90
2022-10-01T19:18:42.412Z,99.90
2022-10-01T19:21:23.585Z,99.90
2022-10-01T19:24:10.395Z,99.90
2022-10-01T19:26:45.631Z,99.90
2022-10-01T19:29:32.834Z,99.90
2022-10-01T19:32:04.222Z,99.90
2022-10-01T19:34:36.992Z,99.90
2022-10-01T19:37:11.984Z,99.90
2022-10-01T19:39:42.587Z,99.90
2022-10-01T19:42:18.525Z,99.90
2022-10-01T19:44:55.408Z,99.90
2022-10-01T19:47:33.051Z,99.90
2022-10-01T19:50:06.535Z,99.90
2022-10-01T19:52:39.543Z,99.90
2022-10-01T19:55:15.972Z,99.90
2022-10-01T19:57:45.925Z,99.90
2022-10-01T20:00:18.210Z,99.90
2022-10-01T20:02:54.655Z,99.90
2022-10-01T20:05:29.313Z,99.90
2022-10-01T20:08:04.801Z,99.90
2022-10-01T20:10:39.507Z,99.90
2022-10-01T20:13:27.450Z,99.90
2022-10-01T20:16:06.035Z,99.90
2022-10-01T20:18:44.260Z,99.90
2022-10-01T20:21:23.941Z,99.90
2022-10-01T20:23:59.200Z,99.90
2022-10-01T20:26:38.454Z,99.90
2022-10-01T20:29:18.169Z,99.90
2022-10-01T20:31:54.834Z,99.90
2022-10-01T20:34:31.040Z,99.90
2022-10-01T20:37:09.329Z,99.90
2022-10-01T20:39:42.946Z,99.90
2022-10-01T20:42:20.682Z,99.90
2022-10-01T20:44:48.999Z,99.90
2022-10-01T20:47:24.796Z,99.90
2022-10-01T20:50:04.783Z,99.90
2022-10-01T20:52:42.466Z,99.90
2022-10-01T20:55:18.092Z,99.90
2022-10-01T20:57:51.575Z,99.90
2022-10-01T21:00:23.582Z,99.90
2022-10-01T21:02:57.447Z,99.90
2022-10-01T21:05:29.832Z,99.90
2022-10-01T21:08:02.150Z,99.90
2022-10-01T21:10:36.363Z,99.90
2022-10-01T21:13:12.567Z,99.90
2022-10-01T21:15:54.344Z,99.90
2022-10-01T21:18:35.797Z,99.90
2022-10-01T21:21:15.747Z,99.90
2022-10-01T21:24:08.833Z,99.90
2022-10-01T21:26:48.999Z,99.90
2022-10-01T21:29:42.086Z,99.90
2022-10-01T21:32:22.571Z,99.90
2022-10-01T21:35:01.145Z,99.90
2022-10-01T21:37:33.941Z,99.90
2022-10-01T21:40:13.150Z,99.90
2022-10-01T21:42:52.263Z,99.90
2022-10-01T21:45:34.680Z,99.90
2022-10-01T21:48:16.511Z,99.90
2022-10-01T21:50:52.978Z,99.90
2022-10-01T21:53:40.376Z,99.90
2022-10-01T21:56:24.666Z,99.90
2022-10-01T21:59:06.839Z,99.90
2022-10-01T22:01:57.243Z,99.90
2022-10-01T22:04:32.933Z,99.90
2022-10-01T22:07:09.842Z,99.90
2022-10-01T22:09:43.361Z,99.90
2022-10-01T22:12:13.165Z,99.90
2022-10-01T22:14:42.437Z,99.90
2022-10-01T22:17:16.817Z,99.90
2022-10-01T22:19:50.200Z,99.90
2022-10-01T22:22:22.893Z,99.90
2022-10-01T22:24:53.167Z,99.90
2022-10-01T22:27:24.763Z,99.90
2022-10-01T22:29:57.713Z,99.90
2022-10-01T22:32:31.853Z,99.90
2022-10-01T22:35:05.643Z,99.90
2022-10-01T22:37:40.480Z,99.90
2022-10-01T22:40:14.644Z,99.90
2022-10-01T22:42:47.652Z,99.90
2022-10-01T22:45:18.796Z,99.90
2022-10-01T22:48:01.385Z,99.90
2022-10-01T22:50:51.336Z,99.90
2022-10-01T22:53:31.816Z,99.90
2022-10-01T22:56:00.059Z,99.90
2022-10-01T22:58:58.548Z,99.90
2022-10-01T23:01:33.988Z,99.90
2022-10-01T23:04:16.681Z,99.90
2022-10-01T23:06:53.864Z,99.90
2022-10-01T23:09:27.797Z,99.90
2022-10-01T23:12:02.351Z,99.90
2022-10-01T23:14:44.467Z,99.90
2022-10-01T23:17:18.786Z,99.90
2022-10-01T23:19:59.023Z,99.90
2022-10-01T23:22:41.193Z,99.90
2022-10-01T23:25:18.808Z,99.90
2022-10-01T23:28:06.617Z,99.90
2022-10-01T23:30:48.068Z,99.90
2022-10-01T23:33:34.599Z,99.90
2022-10-01T23:36:14.517Z,99.90
2022-10-01T23:39:17.943Z,99.90
2022-10-01T23:41:51.985Z,99.90
2022-10-01T23:44:31.057Z,99.90
2022-10-01T23:47:03.967Z,99.90
2022-10-01T23:49:36.908Z,99.90
2022-10-01T23:52:14.097Z,99.90
2022-10-01T23:54:48.711Z,99.90
2022-10-01T23:57:21.646Z,99.90
2022-10-01T23:59:59.664Z,99.90
